SVMI/CCS METAR and TAF weather

Enter ICAO airport designator
Station Type Date Time Source
SVMI METAR 2018/12/15 20:00 UTC NOAA

SVMI 152000Z 09005KT 9999 FEW016 29/24 Q1009


Station Type Date Time Source
SVMI Decoded METAR 2018/12/15 20:00 UTC NOAA

Caracas / Maiquetia Aerop. Intl. Simon Bolivar, Venezuela (SVMI) 10-36N 066-59W 48M
Dec 15, 2018 - 03:00 PM EST / 2018.12.15 2000 UTC
Wind: from the E (090 degrees) at 6 MPH (5 KT):0
Visibility: greater than 7 mile(s):0
Sky conditions: mostly clear
Temperature: 84 F (29 C)
Dew Point: 75 F (24 C)
Relative Humidity: 74%
Pressure (altimeter): 29.80 in. Hg (1009 hPa)
ob: SVMI 152000Z 09005KT 9999 FEW016 29/24 Q1009
cycle: 20

Station Type Date Time Source
SVMI TAF 2018/12/15 18:03 UTC NOAA

TAF SVMI 151600Z 1518/1618 09006KT 9999 FEW016 TX32/18Z TN24/08Z
FM151800 04006KT SCT016
BECMG 1522/1602 09002KT FEW016


Example: see airport list